sensor_id;sensor_type;location;lat;lon;timestamp;pressure;altitude;pressure_sealevel;temperature;humidity
64711;BME280;51139;45.626;6.850;2023-03-26T00:00:40;81744.91;;;1.20;72.21
64711;BME280;51139;45.626;6.850;2023-03-26T00:03:11;81749.19;;;1.31;72.80
64711;BME280;51139;45.626;6.850;2023-03-26T00:05:38;81744.28;;;1.27;69.97
64711;BME280;51139;45.626;6.850;2023-03-26T00:08:04;81761.94;;;1.35;70.38
64711;BME280;51139;45.626;6.850;2023-03-26T00:10:36;81767.28;;;1.42;70.24
64711;BME280;51139;45.626;6.850;2023-03-26T00:13:03;81758.44;;;1.32;73.36
64711;BME280;51139;45.626;6.850;2023-03-26T00:15:28;81758.75;;;0.88;83.46
64711;BME280;51139;45.626;6.850;2023-03-26T00:17:54;81753.63;;;0.82;92.42
64711;BME280;51139;45.626;6.850;2023-03-26T00:20:21;81765.78;;;0.34;99.76
64711;BME280;51139;45.626;6.850;2023-03-26T00:22:47;81749.34;;;0.25;100.00
64711;BME280;51139;45.626;6.850;2023-03-26T00:25:12;81744.13;;;0.25;98.54
64711;BME280;51139;45.626;6.850;2023-03-26T00:27:39;81730.50;;;0.19;92.58
64711;BME280;51139;45.626;6.850;2023-03-26T00:30:05;81727.19;;;0.19;97.73
64711;BME280;51139;45.626;6.850;2023-03-26T00:32:30;81723.81;;;0.37;98.75
64711;BME280;51139;45.626;6.850;2023-03-26T00:34:56;81719.34;;;0.05;99.88
64711;BME280;51139;45.626;6.850;2023-03-26T00:37:22;81725.47;;;0.21;100.00
64711;BME280;51139;45.626;6.850;2023-03-26T00:39:52;81718.56;;;0.10;100.00
64711;BME280;51139;45.626;6.850;2023-03-26T00:42:18;81713.44;;;-0.28;100.00
64711;BME280;51139;45.626;6.850;2023-03-26T00:44:44;81730.06;;;0.02;100.00
64711;BME280;51139;45.626;6.850;2023-03-26T00:47:09;81728.63;;;0.47;100.00
64711;BME280;51139;45.626;6.850;2023-03-26T00:49:35;81728.75;;;0.54;100.00
64711;BME280;51139;45.626;6.850;2023-03-26T00:52:00;81723.03;;;0.69;98.91
64711;BME280;51139;45.626;6.850;2023-03-26T00:54:27;81713.81;;;0.68;97.03
64711;BME280;51139;45.626;6.850;2023-03-26T00:56:53;81718.94;;;0.47;98.14
64711;BME280;51139;45.626;6.850;2023-03-26T00:59:21;81716.63;;;0.70;98.96
64711;BME280;51139;45.626;6.850;2023-03-26T01:01:47;81715.94;;;0.56;98.44
64711;BME280;51139;45.626;6.850;2023-03-26T01:04:38;81716.81;;;-0.01;100.00
64711;BME280;51139;45.626;6.850;2023-03-26T01:07:09;81709.81;;;-0.06;100.00
64711;BME280;51139;45.626;6.850;2023-03-26T01:09:39;81713.22;;;0.03;100.00
64711;BME280;51139;45.626;6.850;2023-03-26T01:12:13;81709.25;;;0.28;100.00
64711;BME280;51139;45.626;6.850;2023-03-26T01:14:43;81710.00;;;-0.04;100.00
64711;BME280;51139;45.626;6.850;2023-03-26T01:17:09;81721.56;;;0.01;100.00
64711;BME280;51139;45.626;6.850;2023-03-26T01:19:59;81723.28;;;0.25;100.00
64711;BME280;51139;45.626;6.850;2023-03-26T01:22:30;81708.00;;;-0.11;100.00
64711;BME280;51139;45.626;6.850;2023-03-26T01:24:55;81709.63;;;-0.27;100.00
64711;BME280;51139;45.626;6.850;2023-03-26T01:27:30;81707.56;;;-0.15;100.00
64711;BME280;51139;45.626;6.850;2023-03-26T01:30:32;81700.28;;;-0.03;100.00
64711;BME280;51139;45.626;6.850;2023-03-26T01:33:08;81689.00;;;-0.25;100.00
64711;BME280;51139;45.626;6.850;2023-03-26T01:35:46;81689.56;;;-0.13;100.00
64711;BME280;51139;45.626;6.850;2023-03-26T01:41:01;81678.56;;;-0.06;100.00
64711;BME280;51139;45.626;6.850;2023-03-26T01:46:14;81673.59;;;0.23;100.00
64711;BME280;51139;45.626;6.850;2023-03-26T01:48:45;81676.84;;;-0.03;100.00
64711;BME280;51139;45.626;6.850;2023-03-26T01:51:11;81670.28;;;0.36;100.00
64711;BME280;51139;45.626;6.850;2023-03-26T01:53:41;81661.19;;;0.56;100.00
64711;BME280;51139;45.626;6.850;2023-03-26T02:01:32;81655.25;;;0.42;100.00
64711;BME280;51139;45.626;6.850;2023-03-26T02:04:08;81640.94;;;0.49;100.00
64711;BME280;51139;45.626;6.850;2023-03-26T02:06:43;81640.63;;;0.53;100.00
64711;BME280;51139;45.626;6.850;2023-03-26T02:09:12;81641.94;;;0.46;100.00
64711;BME280;51139;45.626;6.850;2023-03-26T02:11:39;81639.81;;;0.45;100.00
64711;BME280;51139;45.626;6.850;2023-03-26T02:14:06;81634.91;;;0.68;100.00
64711;BME280;51139;45.626;6.850;2023-03-26T02:16:32;81636.91;;;0.62;98.36
64711;BME280;51139;45.626;6.850;2023-03-26T02:18:58;81629.22;;;0.42;98.01
64711;BME280;51139;45.626;6.850;2023-03-26T02:21:25;81639.13;;;0.57;97.20
64711;BME280;51139;45.626;6.850;2023-03-26T02:23:53;81643.44;;;0.55;98.19
64711;BME280;51139;45.626;6.850;2023-03-26T02:26:27;81629.59;;;0.47;98.85
64711;BME280;51139;45.626;6.850;2023-03-26T02:28:53;81625.91;;;0.55;99.55
64711;BME280;51139;45.626;6.850;2023-03-26T02:31:19;81627.16;;;0.76;97.43
64711;BME280;51139;45.626;6.850;2023-03-26T02:33:46;81625.84;;;0.96;96.87
64711;BME280;51139;45.626;6.850;2023-03-26T02:36:13;81628.34;;;0.88;98.19
64711;BME280;51139;45.626;6.850;2023-03-26T02:38:40;81629.69;;;0.68;96.26
64711;BME280;51139;45.626;6.850;2023-03-26T02:41:06;81629.69;;;0.68;97.88
64711;BME280;51139;45.626;6.850;2023-03-26T02:43:32;81619.44;;;0.83;97.58
64711;BME280;51139;45.626;6.850;2023-03-26T02:45:57;81616.56;;;0.47;100.00
64711;BME280;51139;45.626;6.850;2023-03-26T02:48:22;81612.66;;;0.53;100.00
64711;BME280;51139;45.626;6.850;2023-03-26T02:50:48;81611.34;;;0.47;100.00
64711;BME280;51139;45.626;6.850;2023-03-26T02:53:19;81617.25;;;0.74;100.00
64711;BME280;51139;45.626;6.850;2023-03-26T02:55:46;81612.00;;;0.87;100.00
64711;BME280;51139;45.626;6.850;2023-03-26T02:58:11;81613.94;;;0.73;100.00
64711;BME280;51139;45.626;6.850;2023-03-26T03:00:44;81614.06;;;0.68;100.00
64711;BME280;51139;45.626;6.850;2023-03-26T03:03:11;81604.66;;;0.51;100.00
64711;BME280;51139;45.626;6.850;2023-03-26T03:05:37;81600.03;;;0.57;100.00
64711;BME280;51139;45.626;6.850;2023-03-26T03:08:03;81605.63;;;0.75;100.00
64711;BME280;51139;45.626;6.850;2023-03-26T03:10:31;81599.63;;;0.67;100.00
64711;BME280;51139;45.626;6.850;2023-03-26T03:12:59;81594.69;;;0.63;100.00
64711;BME280;51139;45.626;6.850;2023-03-26T03:15:25;81613.22;;;0.86;100.00
64711;BME280;51139;45.626;6.850;2023-03-26T03:17:51;81605.78;;;0.91;100.00
64711;BME280;51139;45.626;6.850;2023-03-26T03:20:16;81596.41;;;1.09;100.00
64711;BME280;51139;45.626;6.850;2023-03-26T03:22:42;81597.84;;;0.96;100.00
64711;BME280;51139;45.626;6.850;2023-03-26T03:25:08;81592.22;;;1.06;100.00
64711;BME280;51139;45.626;6.850;2023-03-26T03:27:40;81585.59;;;1.05;100.00
64711;BME280;51139;45.626;6.850;2023-03-26T03:30:06;81584.22;;;0.90;100.00
64711;BME280;51139;45.626;6.850;2023-03-26T03:32:32;81582.84;;;0.76;100.00
64711;BME280;51139;45.626;6.850;2023-03-26T03:34:57;81579.38;;;0.60;100.00
64711;BME280;51139;45.626;6.850;2023-03-26T03:37:23;81569.97;;;0.43;100.00
64711;BME280;51139;45.626;6.850;2023-03-26T03:39:48;81559.88;;;0.26;100.00
64711;BME280;51139;45.626;6.850;2023-03-26T03:42:14;81551.72;;;0.29;100.00
64711;BME280;51139;45.626;6.850;2023-03-26T03:44:39;81537.03;;;0.19;100.00
64711;BME280;51139;45.626;6.850;2023-03-26T03:47:05;81545.03;;;0.21;100.00
64711;BME280;51139;45.626;6.850;2023-03-26T03:49:31;81553.13;;;0.57;100.00
64711;BME280;51139;45.626;6.850;2023-03-26T03:51:56;81546.50;;;0.56;100.00
64711;BME280;51139;45.626;6.850;2023-03-26T03:54:22;81547.25;;;0.78;100.00
64711;BME280;51139;45.626;6.850;2023-03-26T03:56:48;81531.84;;;0.67;100.00
64711;BME280;51139;45.626;6.850;2023-03-26T03:59:13;81541.50;;;0.45;100.00
64711;BME280;51139;45.626;6.850;2023-03-26T04:01:40;81530.28;;;0.37;100.00
64711;BME280;51139;45.626;6.850;2023-03-26T04:04:08;81517.84;;;0.43;100.00
64711;BME280;51139;45.626;6.850;2023-03-26T04:06:33;81522.75;;;0.47;100.00
64711;BME280;51139;45.626;6.850;2023-03-26T04:08:59;81521.72;;;0.63;100.00
64711;BME280;51139;45.626;6.850;2023-03-26T04:11:24;81511.13;;;0.82;100.00
64711;BME280;51139;45.626;6.850;2023-03-26T04:13:49;81504.50;;;0.81;100.00
64711;BME280;51139;45.626;6.850;2023-03-26T04:16:15;81500.16;;;0.63;100.00
64711;BME280;51139;45.626;6.850;2023-03-26T04:18:42;81501.94;;;0.68;100.00
64711;BME280;51139;45.626;6.850;2023-03-26T04:21:09;81509.09;;;0.54;100.00
64711;BME280;51139;45.626;6.850;2023-03-26T04:23:37;81515.19;;;0.70;100.00
64711;BME280;51139;45.626;6.850;2023-03-26T04:26:05;81500.38;;;0.86;100.00
64711;BME280;51139;45.626;6.850;2023-03-26T04:28:50;81493.00;;;0.98;100.00
64711;BME280;51139;45.626;6.850;2023-03-26T04:31:19;81500.91;;;1.06;100.00
64711;BME280;51139;45.626;6.850;2023-03-26T04:33:50;81495.28;;;0.80;100.00
64711;BME280;51139;45.626;6.850;2023-03-26T04:36:25;81491.34;;;0.66;100.00
64711;BME280;51139;45.626;6.850;2023-03-26T04:38:52;81485.44;;;0.86;100.00
64711;BME280;51139;45.626;6.850;2023-03-26T04:41:19;81488.34;;;0.83;100.00
64711;BME280;51139;45.626;6.850;2023-03-26T04:43:46;81489.97;;;0.51;100.00
64711;BME280;51139;45.626;6.850;2023-03-26T04:46:21;81498.66;;;0.06;100.00
64711;BME280;51139;45.626;6.850;2023-03-26T04:48:52;81496.75;;;0.20;100.00
64711;BME280;51139;45.626;6.850;2023-03-26T04:51:20;81490.75;;;0.11;100.00
64711;BME280;51139;45.626;6.850;2023-03-26T04:53:58;81485.28;;;-0.12;100.00
64711;BME280;51139;45.626;6.850;2023-03-26T04:56:36;81478.31;;;0.18;100.00
64711;BME280;51139;45.626;6.850;2023-03-26T04:59:03;81470.56;;;-0.36;100.00
64711;BME280;51139;45.626;6.850;2023-03-26T05:01:30;81482.28;;;-0.43;100.00
64711;BME280;51139;45.626;6.850;2023-03-26T05:03:56;81488.38;;;-0.40;100.00
64711;BME280;51139;45.626;6.850;2023-03-26T05:06:24;81493.69;;;-0.06;100.00
64711;BME280;51139;45.626;6.850;2023-03-26T05:08:52;81489.00;;;0.27;100.00
64711;BME280;51139;45.626;6.850;2023-03-26T05:11:18;81481.38;;;0.29;100.00
64711;BME280;51139;45.626;6.850;2023-03-26T05:13:43;81482.34;;;0.05;100.00
64711;BME280;51139;45.626;6.850;2023-03-26T05:16:10;81488.16;;;0.11;100.00
64711;BME280;51139;45.626;6.850;2023-03-26T05:18:36;81482.56;;;-0.20;100.00
64711;BME280;51139;45.626;6.850;2023-03-26T05:21:01;81493.97;;;0.04;100.00
64711;BME280;51139;45.626;6.850;2023-03-26T05:23:27;81483.94;;;0.22;100.00
64711;BME280;51139;45.626;6.850;2023-03-26T05:25:52;81475.47;;;0.42;100.00
64711;BME280;51139;45.626;6.850;2023-03-26T05:28:17;81475.25;;;-0.08;100.00
64711;BME280;51139;45.626;6.850;2023-03-26T05:30:45;81464.09;;;0.19;100.00
64711;BME280;51139;45.626;6.850;2023-03-26T05:33:11;81453.03;;;-0.09;100.00
64711;BME280;51139;45.626;6.850;2023-03-26T05:35:36;81459.22;;;-0.93;100.00
64711;BME280;51139;45.626;6.850;2023-03-26T05:38:02;81453.91;;;-1.00;100.00
64711;BME280;51139;45.626;6.850;2023-03-26T05:40:27;81447.63;;;-1.05;100.00
64711;BME280;51139;45.626;6.850;2023-03-26T05:42:53;81433.44;;;-0.64;100.00
64711;BME280;51139;45.626;6.850;2023-03-26T05:45:18;81424.09;;;-0.32;100.00
64711;BME280;51139;45.626;6.850;2023-03-26T05:47:44;81414.31;;;-0.39;100.00
64711;BME280;51139;45.626;6.850;2023-03-26T05:50:09;81397.53;;;-0.04;100.00
64711;BME280;51139;45.626;6.850;2023-03-26T05:52:35;81391.75;;;0.25;100.00
64711;BME280;51139;45.626;6.850;2023-03-26T05:55:01;81385.13;;;0.24;100.00
64711;BME280;51139;45.626;6.850;2023-03-26T05:57:30;81367.56;;;0.03;100.00
64711;BME280;51139;45.626;6.850;2023-03-26T05:59:55;81367.06;;;0.05;100.00
64711;BME280;51139;45.626;6.850;2023-03-26T06:02:21;81360.47;;;0.25;100.00
64711;BME280;51139;45.626;6.850;2023-03-26T06:04:48;81338.94;;;0.24;100.00
64711;BME280;51139;45.626;6.850;2023-03-26T06:07:15;81301.38;;;0.41;100.00
64711;BME280;51139;45.626;6.850;2023-03-26T06:09:41;81304.22;;;0.72;100.00
64711;BME280;51139;45.626;6.850;2023-03-26T06:12:08;81306.31;;;1.02;100.00
64711;BME280;51139;45.626;6.850;2023-03-26T06:14:34;81304.56;;;1.05;100.00
64711;BME280;51139;45.626;6.850;2023-03-26T06:16:59;81297.25;;;0.75;100.00
64711;BME280;51139;45.626;6.850;2023-03-26T06:19:25;81296.97;;;0.57;100.00
64711;BME280;51139;45.626;6.850;2023-03-26T06:21:51;81296.03;;;0.76;100.00
64711;BME280;51139;45.626;6.850;2023-03-26T06:24:16;81295.16;;;1.02;100.00
64711;BME280;51139;45.626;6.850;2023-03-26T06:26:44;81298.75;;;1.20;100.00
64711;BME280;51139;45.626;6.850;2023-03-26T06:29:10;81309.84;;;1.13;100.00
64711;BME280;51139;45.626;6.850;2023-03-26T06:31:36;81307.28;;;0.92;100.00
64711;BME280;51139;45.626;6.850;2023-03-26T06:34:01;81317.75;;;0.99;100.00
64711;BME280;51139;45.626;6.850;2023-03-26T06:36:27;81305.78;;;0.75;100.00
64711;BME280;51139;45.626;6.850;2023-03-26T06:38:52;81315.81;;;0.92;100.00
64711;BME280;51139;45.626;6.850;2023-03-26T06:41:18;81316.69;;;0.95;100.00
64711;BME280;51139;45.626;6.850;2023-03-26T06:43:43;81319.28;;;0.95;100.00
64711;BME280;51139;45.626;6.850;2023-03-26T06:46:09;81313.78;;;0.77;100.00
64711;BME280;51139;45.626;6.850;2023-03-26T06:48:34;81324.97;;;0.85;100.00
64711;BME280;51139;45.626;6.850;2023-03-26T06:50:59;81314.44;;;0.70;100.00
64711;BME280;51139;45.626;6.850;2023-03-26T06:53:25;81308.25;;;0.81;100.00
64711;BME280;51139;45.626;6.850;2023-03-26T06:55:52;81309.03;;;0.68;100.00
64711;BME280;51139;45.626;6.850;2023-03-26T06:58:17;81301.06;;;0.73;100.00
64711;BME280;51139;45.626;6.850;2023-03-26T07:00:43;81301.97;;;0.76;100.00
64711;BME280;51139;45.626;6.850;2023-03-26T07:03:08;81315.19;;;0.78;100.00
64711;BME280;51139;45.626;6.850;2023-03-26T07:05:35;81309.75;;;0.97;100.00
64711;BME280;51139;45.626;6.850;2023-03-26T07:08:01;81303.34;;;1.06;100.00
64711;BME280;51139;45.626;6.850;2023-03-26T07:10:27;81312.75;;;1.09;100.00
64711;BME280;51139;45.626;6.850;2023-03-26T07:12:52;81314.97;;;0.97;100.00
64711;BME280;51139;45.626;6.850;2023-03-26T07:15:18;81318.16;;;0.32;100.00
64711;BME280;51139;45.626;6.850;2023-03-26T07:17:43;81316.44;;;0.85;100.00
64711;BME280;51139;45.626;6.850;2023-03-26T07:20:09;81313.25;;;1.00;100.00
64711;BME280;51139;45.626;6.850;2023-03-26T07:22:35;81311.63;;;0.89;100.00
64711;BME280;51139;45.626;6.850;2023-03-26T07:25:01;81315.78;;;0.63;100.00
64711;BME280;51139;45.626;6.850;2023-03-26T07:30:00;81303.59;;;0.87;100.00
64711;BME280;51139;45.626;6.850;2023-03-26T07:32:36;81305.94;;;0.98;100.00
64711;BME280;51139;45.626;6.850;2023-03-26T07:38:20;81296.28;;;0.85;100.00
64711;BME280;51139;45.626;6.850;2023-03-26T07:44:22;81281.13;;;0.76;100.00
64711;BME280;51139;45.626;6.850;2023-03-26T07:46:52;81281.44;;;0.72;100.00
64711;BME280;51139;45.626;6.850;2023-03-26T07:49:18;81274.13;;;0.71;100.00
64711;BME280;51139;45.626;6.850;2023-03-26T07:51:45;81275.75;;;0.82;100.00
64711;BME280;51139;45.626;6.850;2023-03-26T07:54:11;81273.06;;;0.95;100.00
64711;BME280;51139;45.626;6.850;2023-03-26T07:56:41;81265.69;;;0.86;100.00
64711;BME280;51139;45.626;6.850;2023-03-26T07:59:13;81269.84;;;0.81;100.00
64711;BME280;51139;45.626;6.850;2023-03-26T08:05:39;81267.78;;;0.87;100.00
64711;BME280;51139;45.626;6.850;2023-03-26T08:16:40;81244.63;;;0.76;100.00
64711;BME280;51139;45.626;6.850;2023-03-26T08:22:02;81239.25;;;0.53;100.00
64711;BME280;51139;45.626;6.850;2023-03-26T08:25:02;81242.09;;;0.63;100.00
64711;BME280;51139;45.626;6.850;2023-03-26T08:27:36;81244.81;;;0.49;100.00
64711;BME280;51139;45.626;6.850;2023-03-26T08:30:14;81248.06;;;0.71;100.00
64711;BME280;51139;45.626;6.850;2023-03-26T08:32:41;81251.88;;;0.70;100.00
64711;BME280;51139;45.626;6.850;2023-03-26T08:35:14;81255.59;;;0.53;100.00
64711;BME280;51139;45.626;6.850;2023-03-26T08:37:39;81253.00;;;0.53;100.00
64711;BME280;51139;45.626;6.850;2023-03-26T08:40:06;81237.53;;;0.26;100.00
64711;BME280;51139;45.626;6.850;2023-03-26T09:01:45;81266.25;;;-0.08;100.00
64711;BME280;51139;45.626;6.850;2023-03-26T09:04:33;81274.56;;;-0.10;100.00
64711;BME280;51139;45.626;6.850;2023-03-26T09:18:57;81265.78;;;0.22;100.00
64711;BME280;51139;45.626;6.850;2023-03-26T09:22:21;81267.44;;;-0.09;100.00
64711;BME280;51139;45.626;6.850;2023-03-26T09:36:18;81252.31;;;0.32;100.00
64711;BME280;51139;45.626;6.850;2023-03-26T09:38:51;81247.84;;;0.40;100.00
64711;BME280;51139;45.626;6.850;2023-03-26T09:55:52;81286.13;;;-0.19;100.00
64711;BME280;51139;45.626;6.850;2023-03-26T10:04:31;81302.31;;;-0.12;100.00
64711;BME280;51139;45.626;6.850;2023-03-26T10:09:43;81320.72;;;-0.32;100.00
64711;BME280;51139;45.626;6.850;2023-03-26T10:12:34;81328.56;;;-0.59;100.00
64711;BME280;51139;45.626;6.850;2023-03-26T10:28:54;81324.00;;;-0.93;100.00
64711;BME280;51139;45.626;6.850;2023-03-26T10:34:20;81332.53;;;-0.31;100.00
64711;BME280;51139;45.626;6.850;2023-03-26T10:39:33;81352.22;;;-0.97;100.00
64711;BME280;51139;45.626;6.850;2023-03-26T10:44:48;81345.91;;;-1.15;100.00
64711;BME280;51139;45.626;6.850;2023-03-26T10:53:31;81351.91;;;-1.47;100.00
64711;BME280;51139;45.626;6.850;2023-03-26T10:56:06;81343.44;;;-1.21;100.00
64711;BME280;51139;45.626;6.850;2023-03-26T10:58:38;81339.19;;;-1.97;100.00
64711;BME280;51139;45.626;6.850;2023-03-26T11:01:10;81339.38;;;-1.62;100.00
64711;BME280;51139;45.626;6.850;2023-03-26T11:03:45;81327.31;;;-1.46;100.00
64711;BME280;51139;45.626;6.850;2023-03-26T11:12:12;81304.00;;;-2.44;100.00
64711;BME280;51139;45.626;6.850;2023-03-26T11:15:07;81299.94;;;-2.07;100.00
64711;BME280;51139;45.626;6.850;2023-03-26T11:20:37;81283.59;;;-2.01;100.00
64711;BME280;51139;45.626;6.850;2023-03-26T11:31:11;81289.22;;;-1.70;100.00
64711;BME280;51139;45.626;6.850;2023-03-26T11:33:47;81276.03;;;-1.86;100.00
64711;BME280;51139;45.626;6.850;2023-03-26T11:36:18;81273.25;;;-1.61;100.00
64711;BME280;51139;45.626;6.850;2023-03-26T11:38:48;81273.31;;;-1.80;100.00
64711;BME280;51139;45.626;6.850;2023-03-26T11:41:25;81269.72;;;-1.91;100.00
64711;BME280;51139;45.626;6.850;2023-03-26T11:44:02;81259.84;;;-1.79;100.00
64711;BME280;51139;45.626;6.850;2023-03-26T11:46:31;81251.06;;;-1.76;100.00
64711;BME280;51139;45.626;6.850;2023-03-26T11:49:02;81233.19;;;-1.52;100.00
64711;BME280;51139;45.626;6.850;2023-03-26T11:51:38;81232.19;;;-1.49;100.00
64711;BME280;51139;45.626;6.850;2023-03-26T11:54:05;81236.06;;;-2.10;100.00
64711;BME280;51139;45.626;6.850;2023-03-26T11:59:29;81237.91;;;-2.37;100.00
64711;BME280;51139;45.626;6.850;2023-03-26T12:05:02;81250.34;;;-1.89;100.00
64711;BME280;51139;45.626;6.850;2023-03-26T12:07:31;81251.53;;;-2.04;100.00
64711;BME280;51139;45.626;6.850;2023-03-26T12:10:04;81253.84;;;-1.73;100.00
64711;BME280;51139;45.626;6.850;2023-03-26T12:12:39;81258.47;;;-1.53;100.00
64711;BME280;51139;45.626;6.850;2023-03-26T12:15:23;81257.84;;;-1.45;100.00
64711;BME280;51139;45.626;6.850;2023-03-26T12:17:52;81250.16;;;-1.78;100.00
64711;BME280;51139;45.626;6.850;2023-03-26T12:22:58;81244.28;;;-1.52;100.00
64711;BME280;51139;45.626;6.850;2023-03-26T12:25:26;81240.19;;;-1.74;100.00
64711;BME280;51139;45.626;6.850;2023-03-26T12:28:15;81234.78;;;-1.89;100.00
64711;BME280;51139;45.626;6.850;2023-03-26T12:30:52;81225.97;;;-2.00;100.00
64711;BME280;51139;45.626;6.850;2023-03-26T12:33:25;81222.38;;;-1.83;100.00
64711;BME280;51139;45.626;6.850;2023-03-26T12:35:53;81204.41;;;-1.54;100.00
64711;BME280;51139;45.626;6.850;2023-03-26T12:38:31;81191.09;;;-1.24;100.00
64711;BME280;51139;45.626;6.850;2023-03-26T12:41:12;81193.16;;;-1.09;100.00
64711;BME280;51139;45.626;6.850;2023-03-26T12:43:42;81199.44;;;-1.04;100.00
64711;BME280;51139;45.626;6.850;2023-03-26T12:46:33;81184.56;;;-1.17;100.00
64711;BME280;51139;45.626;6.850;2023-03-26T12:49:06;81176.41;;;-1.35;100.00
64711;BME280;51139;45.626;6.850;2023-03-26T12:51:50;81152.19;;;-1.16;100.00
64711;BME280;51139;45.626;6.850;2023-03-26T13:04:56;81119.72;;;-1.01;100.00
64711;BME280;51139;45.626;6.850;2023-03-26T13:15:33;81103.03;;;-0.21;100.00
64711;BME280;51139;45.626;6.850;2023-03-26T13:20:49;81066.28;;;-0.10;100.00
64711;BME280;51139;45.626;6.850;2023-03-26T13:29:21;81079.03;;;-0.78;100.00
64711;BME280;51139;45.626;6.850;2023-03-26T13:32:17;81088.06;;;-0.79;100.00
64711;BME280;51139;45.626;6.850;2023-03-26T13:43:23;81036.03;;;0.16;100.00
64711;BME280;51139;45.626;6.850;2023-03-26T13:48:27;81028.34;;;0.03;100.00
64711;BME280;51139;45.626;6.850;2023-03-26T13:51:06;81021.91;;;0.04;100.00
64711;BME280;51139;45.626;6.850;2023-03-26T13:54:01;81031.06;;;-0.11;100.00
64711;BME280;51139;45.626;6.850;2023-03-26T13:56:42;81020.09;;;-0.46;100.00
64711;BME280;51139;45.626;6.850;2023-03-26T13:59:39;81028.09;;;-0.73;100.00
64711;BME280;51139;45.626;6.850;2023-03-26T14:02:12;81034.69;;;-0.72;100.00
64711;BME280;51139;45.626;6.850;2023-03-26T14:04:49;81037.38;;;-0.56;100.00
64711;BME280;51139;45.626;6.850;2023-03-26T14:07:42;81039.78;;;-0.59;100.00
64711;BME280;51139;45.626;6.850;2023-03-26T14:12:46;81033.44;;;-1.00;100.00
64711;BME280;51139;45.626;6.850;2023-03-26T14:15:30;81041.69;;;-0.88;100.00
64711;BME280;51139;45.626;6.850;2023-03-26T14:21:34;81057.69;;;-0.55;100.00
64711;BME280;51139;45.626;6.850;2023-03-26T14:26:52;81078.78;;;-0.66;100.00
64711;BME280;51139;45.626;6.850;2023-03-26T14:34:53;81085.75;;;-1.59;100.00
64711;BME280;51139;45.626;6.850;2023-03-26T14:37:46;81092.78;;;-1.47;100.00
64711;BME280;51139;45.626;6.850;2023-03-26T14:40:27;81060.13;;;-1.42;100.00
64711;BME280;51139;45.626;6.850;2023-03-26T14:42:56;81081.00;;;-1.96;100.00
64711;BME280;51139;45.626;6.850;2023-03-26T14:51:46;81110.44;;;-1.66;100.00
64711;BME280;51139;45.626;6.850;2023-03-26T14:54:20;81120.59;;;-1.55;100.00
64711;BME280;51139;45.626;6.850;2023-03-26T15:16:15;81131.34;;;-1.37;100.00
64711;BME280;51139;45.626;6.850;2023-03-26T15:24:42;81140.38;;;-1.65;100.00
64711;BME280;51139;45.626;6.850;2023-03-26T15:27:22;81124.81;;;-1.65;100.00
64711;BME280;51139;45.626;6.850;2023-03-26T15:43:15;81119.97;;;-1.48;100.00
64711;BME280;51139;45.626;6.850;2023-03-26T15:51:48;81103.06;;;-1.06;100.00
64711;BME280;51139;45.626;6.850;2023-03-26T15:54:31;81092.75;;;-1.33;100.00
64711;BME280;51139;45.626;6.850;2023-03-26T15:57:25;81104.00;;;-1.52;100.00
64711;BME280;51139;45.626;6.850;2023-03-26T16:02:39;81100.13;;;-1.24;100.00
64711;BME280;51139;45.626;6.850;2023-03-26T16:15:38;81083.97;;;-1.65;100.00
64711;BME280;51139;45.626;6.850;2023-03-26T16:33:48;81073.13;;;-1.21;100.00
64711;BME280;51139;45.626;6.850;2023-03-26T16:36:25;81058.47;;;-1.32;100.00
64711;BME280;51139;45.626;6.850;2023-03-26T16:47:35;81054.69;;;-1.65;100.00
64711;BME280;51139;45.626;6.850;2023-03-26T16:49:48;81048.44;;;-1.49;100.00
64711;BME280;51139;45.626;6.850;2023-03-26T16:58:09;81028.56;;;-1.81;100.00
64711;BME280;51139;45.626;6.850;2023-03-26T17:00:47;81018.19;;;-1.81;100.00
64711;BME280;51139;45.626;6.850;2023-03-26T17:03:26;81018.91;;;-1.59;100.00
64711;BME280;51139;45.626;6.850;2023-03-26T17:06:01;81025.19;;;-1.89;100.00
64711;BME280;51139;45.626;6.850;2023-03-26T17:16:35;81020.84;;;-2.08;100.00
64711;BME280;51139;45.626;6.850;2023-03-26T17:27:28;81017.78;;;-1.85;100.00
64711;BME280;51139;45.626;6.850;2023-03-26T17:32:57;81020.78;;;-2.29;100.00
64711;BME280;51139;45.626;6.850;2023-03-26T17:35:36;81018.34;;;-2.13;100.00
64711;BME280;51139;45.626;6.850;2023-03-26T17:40:51;81009.69;;;-2.29;100.00
64711;BME280;51139;45.626;6.850;2023-03-26T17:46:31;80993.81;;;-2.12;100.00
64711;BME280;51139;45.626;6.850;2023-03-26T17:51:53;80986.59;;;-2.68;100.00
64711;BME280;51139;45.626;6.850;2023-03-26T17:54:30;80990.91;;;-2.09;100.00
64711;BME280;51139;45.626;6.850;2023-03-26T17:57:05;80980.84;;;-1.56;100.00
64711;BME280;51139;45.626;6.850;2023-03-26T17:59:35;80981.97;;;-1.65;100.00
64711;BME280;51139;45.626;6.850;2023-03-26T18:02:03;80978.81;;;-1.50;100.00
64711;BME280;51139;45.626;6.850;2023-03-26T18:04:36;80973.66;;;-1.21;100.00
64711;BME280;51139;45.626;6.850;2023-03-26T18:18:12;80962.72;;;-1.91;100.00
64711;BME280;51139;45.626;6.850;2023-03-26T18:20:43;80961.28;;;-2.13;100.00
64711;BME280;51139;45.626;6.850;2023-03-26T18:23:20;80969.25;;;-1.77;100.00
64711;BME280;51139;45.626;6.850;2023-03-26T18:25:53;80969.44;;;-1.53;100.00
64711;BME280;51139;45.626;6.850;2023-03-26T18:28:28;80963.72;;;-1.94;100.00
64711;BME280;51139;45.626;6.850;2023-03-26T18:30:54;80954.19;;;-2.13;100.00
64711;BME280;51139;45.626;6.850;2023-03-26T18:33:19;80955.94;;;-1.94;100.00
64711;BME280;51139;45.626;6.850;2023-03-26T18:35:50;80955.19;;;-1.39;100.00
64711;BME280;51139;45.626;6.850;2023-03-26T18:38:20;80951.44;;;-1.30;100.00
64711;BME280;51139;45.626;6.850;2023-03-26T18:40:49;80947.84;;;-1.48;100.00
64711;BME280;51139;45.626;6.850;2023-03-26T18:43:17;80949.47;;;-1.80;100.00
64711;BME280;51139;45.626;6.850;2023-03-26T18:45:47;80942.88;;;-1.81;100.00
64711;BME280;51139;45.626;6.850;2023-03-26T18:48:18;80940.78;;;-2.03;100.00
64711;BME280;51139;45.626;6.850;2023-03-26T18:50:46;80942.16;;;-1.68;100.00
64711;BME280;51139;45.626;6.850;2023-03-26T18:53:20;80939.22;;;-1.64;100.00
64711;BME280;51139;45.626;6.850;2023-03-26T18:55:48;80937.44;;;-1.69;100.00